sensor_id;sensor_type;location;lat;lon;timestamp;pressure;altitude;pressure_sealevel;temperature
64184;BMP280;50485;49.768;8.636;2022-08-03T00:01:28;100285.34;;;24.87
64184;BMP280;50485;49.768;8.636;2022-08-03T00:03:53;100284.19;;;24.84
64184;BMP280;50485;49.768;8.636;2022-08-03T00:06:18;100288.91;;;24.84
64184;BMP280;50485;49.768;8.636;2022-08-03T00:08:43;100289.75;;;24.77
64184;BMP280;50485;49.768;8.636;2022-08-03T00:11:09;100288.59;;;24.74
64184;BMP280;50485;49.768;8.636;2022-08-03T00:13:34;100289.06;;;24.62
64184;BMP280;50485;49.768;8.636;2022-08-03T00:15:59;100294.13;;;24.67
64184;BMP280;50485;49.768;8.636;2022-08-03T00:18:24;100296.44;;;24.72
64184;BMP280;50485;49.768;8.636;2022-08-03T00:20:50;100280.78;;;24.73
64184;BMP280;50485;49.768;8.636;2022-08-03T00:23:15;100286.69;;;24.68
64184;BMP280;50485;49.768;8.636;2022-08-03T00:25:40;100282.38;;;24.67
64184;BMP280;50485;49.768;8.636;2022-08-03T00:28:07;100292.56;;;24.66
64184;BMP280;50485;49.768;8.636;2022-08-03T00:30:32;100282.44;;;24.60
64184;BMP280;50485;49.768;8.636;2022-08-03T00:32:58;100289.13;;;24.55
64184;BMP280;50485;49.768;8.636;2022-08-03T00:35:23;100281.28;;;24.57
64184;BMP280;50485;49.768;8.636;2022-08-03T00:37:48;100282.88;;;24.51
64184;BMP280;50485;49.768;8.636;2022-08-03T00:40:14;100280.16;;;24.51
64184;BMP280;50485;49.768;8.636;2022-08-03T00:42:53;100284.91;;;24.40
64184;BMP280;50485;49.768;8.636;2022-08-03T00:45:19;100279.78;;;24.46
64184;BMP280;50485;49.768;8.636;2022-08-03T00:47:45;100277.84;;;24.46
64184;BMP280;50485;49.768;8.636;2022-08-03T00:50:10;100280.59;;;24.42
64184;BMP280;50485;49.768;8.636;2022-08-03T00:52:36;100275.50;;;24.45
64184;BMP280;50485;49.768;8.636;2022-08-03T00:55:02;100272.38;;;24.42
64184;BMP280;50485;49.768;8.636;2022-08-03T00:57:28;100271.22;;;24.40
64184;BMP280;50485;49.768;8.636;2022-08-03T00:59:54;100278.28;;;24.37
64184;BMP280;50485;49.768;8.636;2022-08-03T01:02:19;100276.34;;;24.34
64184;BMP280;50485;49.768;8.636;2022-08-03T01:04:44;100272.00;;;24.37
64184;BMP280;50485;49.768;8.636;2022-08-03T01:12:21;100269.31;;;24.26
64184;BMP280;50485;49.768;8.636;2022-08-03T01:17:18;100267.78;;;24.29
64184;BMP280;50485;49.768;8.636;2022-08-03T01:19:48;100263.06;;;24.26
64184;BMP280;50485;49.768;8.636;2022-08-03T01:27:30;100260.03;;;24.17
64184;BMP280;50485;49.768;8.636;2022-08-03T01:29:59;100262.38;;;24.15
64184;BMP280;50485;49.768;8.636;2022-08-03T01:32:34;100262.78;;;24.13
64184;BMP280;50485;49.768;8.636;2022-08-03T01:35:21;100260.41;;;24.15
64184;BMP280;50485;49.768;8.636;2022-08-03T01:37:50;100258.09;;;24.10
64184;BMP280;50485;49.768;8.636;2022-08-03T01:40:16;100260.88;;;24.06
64184;BMP280;50485;49.768;8.636;2022-08-03T01:42:43;100251.50;;;24.04
64184;BMP280;50485;49.768;8.636;2022-08-03T01:45:09;100248.31;;;24.05
64184;BMP280;50485;49.768;8.636;2022-08-03T01:47:35;100255.00;;;24.01
64184;BMP280;50485;49.768;8.636;2022-08-03T01:50:02;100255.00;;;23.97
64184;BMP280;50485;49.768;8.636;2022-08-03T01:52:27;100258.53;;;23.94
64184;BMP280;50485;49.768;8.636;2022-08-03T01:54:54;100253.09;;;23.91
64184;BMP280;50485;49.768;8.636;2022-08-03T01:57:19;100256.25;;;23.89
64184;BMP280;50485;49.768;8.636;2022-08-03T01:59:46;100253.88;;;23.88
64184;BMP280;50485;49.768;8.636;2022-08-03T02:02:12;100253.13;;;23.84
64184;BMP280;50485;49.768;8.636;2022-08-03T02:04:38;100253.88;;;23.88
64184;BMP280;50485;49.768;8.636;2022-08-03T02:07:05;100250.38;;;23.87
64184;BMP280;50485;49.768;8.636;2022-08-03T02:09:30;100245.31;;;23.89
64184;BMP280;50485;49.768;8.636;2022-08-03T02:11:56;100243.34;;;23.86
64184;BMP280;50485;49.768;8.636;2022-08-03T02:14:22;100246.09;;;23.83
64184;BMP280;50485;49.768;8.636;2022-08-03T02:16:48;100246.09;;;23.83
64184;BMP280;50485;49.768;8.636;2022-08-03T02:19:14;100246.13;;;23.79
64184;BMP280;50485;49.768;8.636;2022-08-03T02:21:40;100242.22;;;23.76
64184;BMP280;50485;49.768;8.636;2022-08-03T02:24:05;100243.41;;;23.72
64184;BMP280;50485;49.768;8.636;2022-08-03T02:26:31;100239.91;;;23.71
64184;BMP280;50485;49.768;8.636;2022-08-03T02:29:01;100241.06;;;23.74
64184;BMP280;50485;49.768;8.636;2022-08-03T02:31:27;100248.50;;;23.70
64184;BMP280;50485;49.768;8.636;2022-08-03T02:33:55;100246.56;;;23.60
64184;BMP280;50485;49.768;8.636;2022-08-03T02:36:24;100242.28;;;23.59
64184;BMP280;50485;49.768;8.636;2022-08-03T02:38:51;100241.50;;;23.62
64184;BMP280;50485;49.768;8.636;2022-08-03T02:41:23;100243.06;;;23.63
64184;BMP280;50485;49.768;8.636;2022-08-03T02:43:50;100238.38;;;23.60
64184;BMP280;50485;49.768;8.636;2022-08-03T02:46:18;100244.22;;;23.62
64184;BMP280;50485;49.768;8.636;2022-08-03T02:48:44;100245.38;;;23.61
64184;BMP280;50485;49.768;8.636;2022-08-03T02:51:10;100236.06;;;23.51
64184;BMP280;50485;49.768;8.636;2022-08-03T02:53:35;100236.81;;;23.59
64184;BMP280;50485;49.768;8.636;2022-08-03T02:56:01;100239.56;;;23.55
64184;BMP280;50485;49.768;8.636;2022-08-03T02:58:26;100241.88;;;23.53
64184;BMP280;50485;49.768;8.636;2022-08-03T03:00:53;100242.34;;;23.44
64184;BMP280;50485;49.768;8.636;2022-08-03T03:03:19;100232.19;;;23.41
64184;BMP280;50485;49.768;8.636;2022-08-03T03:05:44;100234.16;;;23.37
64184;BMP280;50485;49.768;8.636;2022-08-03T03:08:14;100232.94;;;23.38
64184;BMP280;50485;49.768;8.636;2022-08-03T03:10:40;100238.44;;;23.31
64184;BMP280;50485;49.768;8.636;2022-08-03T03:13:05;100243.91;;;23.31
64184;BMP280;50485;49.768;8.636;2022-08-03T03:15:31;100240.78;;;23.29
64184;BMP280;50485;49.768;8.636;2022-08-03T03:17:59;100254.84;;;23.24
64184;BMP280;50485;49.768;8.636;2022-08-03T03:20:25;100250.97;;;23.22
64184;BMP280;50485;49.768;8.636;2022-08-03T03:22:50;100248.22;;;23.18
64184;BMP280;50485;49.768;8.636;2022-08-03T03:25:16;100252.53;;;23.19
64184;BMP280;50485;49.768;8.636;2022-08-03T03:27:41;100252.53;;;23.19
64184;BMP280;50485;49.768;8.636;2022-08-03T03:30:07;100253.31;;;23.16
64184;BMP280;50485;49.768;8.636;2022-08-03T03:32:32;100254.88;;;23.10
64184;BMP280;50485;49.768;8.636;2022-08-03T03:34:57;100253.31;;;23.09
64184;BMP280;50485;49.768;8.636;2022-08-03T03:37:23;100251.38;;;23.06
64184;BMP280;50485;49.768;8.636;2022-08-03T03:39:49;100254.09;;;23.02
64184;BMP280;50485;49.768;8.636;2022-08-03T03:42:15;100253.31;;;23.02
64184;BMP280;50485;49.768;8.636;2022-08-03T03:44:40;100250.56;;;22.98
64184;BMP280;50485;49.768;8.636;2022-08-03T03:47:05;100246.28;;;22.94
64184;BMP280;50485;49.768;8.636;2022-08-03T03:49:31;100251.75;;;22.90
64184;BMP280;50485;49.768;8.636;2022-08-03T03:51:56;100258.00;;;22.91
64184;BMP280;50485;49.768;8.636;2022-08-03T03:54:21;100247.50;;;22.93
64184;BMP280;50485;49.768;8.636;2022-08-03T03:56:46;100256.03;;;22.88
64184;BMP280;50485;49.768;8.636;2022-08-03T03:59:12;100241.25;;;22.85
64184;BMP280;50485;49.768;8.636;2022-08-03T04:01:37;100245.13;;;22.80
64184;BMP280;50485;49.768;8.636;2022-08-03T04:04:03;100245.13;;;22.77
64184;BMP280;50485;49.768;8.636;2022-08-03T04:06:48;100246.69;;;22.74
64184;BMP280;50485;49.768;8.636;2022-08-03T04:09:33;100244.72;;;22.71
64184;BMP280;50485;49.768;8.636;2022-08-03T04:12:17;100242.78;;;22.72
64184;BMP280;50485;49.768;8.636;2022-08-03T04:14:43;100247.06;;;22.73
64184;BMP280;50485;49.768;8.636;2022-08-03T04:17:10;100244.34;;;22.73
64184;BMP280;50485;49.768;8.636;2022-08-03T04:19:37;100243.16;;;22.74
64184;BMP280;50485;49.768;8.636;2022-08-03T04:22:08;100247.47;;;22.71
64184;BMP280;50485;49.768;8.636;2022-08-03T04:24:39;100249.41;;;22.67
64184;BMP280;50485;49.768;8.636;2022-08-03T04:27:06;100242.78;;;22.65
64184;BMP280;50485;49.768;8.636;2022-08-03T04:29:32;100239.63;;;22.63
64184;BMP280;50485;49.768;8.636;2022-08-03T04:31:58;100250.97;;;22.72
64184;BMP280;50485;49.768;8.636;2022-08-03T04:34:24;100241.59;;;22.69
64184;BMP280;50485;49.768;8.636;2022-08-03T04:36:51;100251.75;;;22.69
64184;BMP280;50485;49.768;8.636;2022-08-03T04:39:18;100259.16;;;22.65
64184;BMP280;50485;49.768;8.636;2022-08-03T04:41:47;100258.00;;;22.62
64184;BMP280;50485;49.768;8.636;2022-08-03T04:44:13;100255.66;;;22.57
64184;BMP280;50485;49.768;8.636;2022-08-03T04:46:38;100268.13;;;22.58
64184;BMP280;50485;49.768;8.636;2022-08-03T04:49:04;100261.91;;;22.61
64184;BMP280;50485;49.768;8.636;2022-08-03T04:51:29;100271.22;;;22.57
64184;BMP280;50485;49.768;8.636;2022-08-03T04:53:55;100269.72;;;22.73
64184;BMP280;50485;49.768;8.636;2022-08-03T04:56:20;100276.34;;;23.01
64184;BMP280;50485;49.768;8.636;2022-08-03T04:58:45;100279.09;;;23.15
64184;BMP280;50485;49.768;8.636;2022-08-03T05:01:10;100274.38;;;23.26
64184;BMP280;50485;49.768;8.636;2022-08-03T05:03:36;100277.13;;;23.33
64184;BMP280;50485;49.768;8.636;2022-08-03T05:06:01;100275.16;;;23.44
64184;BMP280;50485;49.768;8.636;2022-08-03T05:08:27;100279.78;;;23.62
64184;BMP280;50485;49.768;8.636;2022-08-03T05:10:52;100276.63;;;23.70
64184;BMP280;50485;49.768;8.636;2022-08-03T05:13:17;100272.72;;;23.78
64184;BMP280;50485;49.768;8.636;2022-08-03T05:15:42;100273.44;;;23.86
64184;BMP280;50485;49.768;8.636;2022-08-03T05:18:07;100277.31;;;23.99
64184;BMP280;50485;49.768;8.636;2022-08-03T05:20:33;100272.56;;;24.10
64184;BMP280;50485;49.768;8.636;2022-08-03T05:22:58;100283.78;;;24.27
64184;BMP280;50485;49.768;8.636;2022-08-03T05:25:25;100280.19;;;24.40
64184;BMP280;50485;49.768;8.636;2022-08-03T05:27:50;100275.41;;;24.55
64184;BMP280;50485;49.768;8.636;2022-08-03T05:30:15;100286.28;;;24.69
64184;BMP280;50485;49.768;8.636;2022-08-03T05:32:41;100281.47;;;24.84
64184;BMP280;50485;49.768;8.636;2022-08-03T05:35:06;100281.75;;;24.97
64184;BMP280;50485;49.768;8.636;2022-08-03T05:37:31;100282.44;;;25.08
64184;BMP280;50485;49.768;8.636;2022-08-03T05:39:56;100286.22;;;25.21
64184;BMP280;50485;49.768;8.636;2022-08-03T05:42:22;100278.66;;;25.32
64184;BMP280;50485;49.768;8.636;2022-08-03T05:44:47;100286.34;;;25.45
64184;BMP280;50485;49.768;8.636;2022-08-03T05:47:12;100291.34;;;25.57
64184;BMP280;50485;49.768;8.636;2022-08-03T05:49:37;100288.88;;;25.66
64184;BMP280;50485;49.768;8.636;2022-08-03T05:52:02;100289.91;;;25.76
64184;BMP280;50485;49.768;8.636;2022-08-03T05:54:28;100294.13;;;25.87
64184;BMP280;50485;49.768;8.636;2022-08-03T05:56:53;100296.38;;;25.92
64184;BMP280;50485;49.768;8.636;2022-08-03T05:59:18;100297.38;;;26.05
64184;BMP280;50485;49.768;8.636;2022-08-03T06:01:43;100301.94;;;26.16
64184;BMP280;50485;49.768;8.636;2022-08-03T06:04:09;100296.31;;;26.26
64184;BMP280;50485;49.768;8.636;2022-08-03T06:06:34;100296.47;;;26.43
64184;BMP280;50485;49.768;8.636;2022-08-03T06:08:59;100300.25;;;26.52
64184;BMP280;50485;49.768;8.636;2022-08-03T06:11:24;100302.41;;;26.64
64184;BMP280;50485;49.768;8.636;2022-08-03T06:13:49;100298.75;;;26.71
64184;BMP280;50485;49.768;8.636;2022-08-03T06:16:15;100300.44;;;26.88
64184;BMP280;50485;49.768;8.636;2022-08-03T06:18:40;100301.03;;;26.99
64184;BMP280;50485;49.768;8.636;2022-08-03T06:21:05;100300.44;;;27.12
64184;BMP280;50485;49.768;8.636;2022-08-03T06:23:30;100299.53;;;27.18
64184;BMP280;50485;49.768;8.636;2022-08-03T06:25:55;100294.88;;;27.35
64184;BMP280;50485;49.768;8.636;2022-08-03T06:28:21;100299.81;;;27.44
64184;BMP280;50485;49.768;8.636;2022-08-03T06:30:46;100289.75;;;27.57
64184;BMP280;50485;49.768;8.636;2022-08-03T06:33:11;100285.13;;;27.70
64184;BMP280;50485;49.768;8.636;2022-08-03T06:35:36;100290.19;;;27.71
64184;BMP280;50485;49.768;8.636;2022-08-03T06:38:02;100294.25;;;27.47
64184;BMP280;50485;49.768;8.636;2022-08-03T06:40:27;100293.59;;;27.59
64184;BMP280;50485;49.768;8.636;2022-08-03T06:42:57;100299.16;;;27.76
64184;BMP280;50485;49.768;8.636;2022-08-03T06:45:22;100290.84;;;27.95
64184;BMP280;50485;49.768;8.636;2022-08-03T06:47:58;100300.47;;;28.23
64184;BMP280;50485;49.768;8.636;2022-08-03T06:50:23;100295.91;;;28.33
64184;BMP280;50485;49.768;8.636;2022-08-03T06:52:48;100294.16;;;28.23
64184;BMP280;50485;49.768;8.636;2022-08-03T06:55:14;100296.72;;;27.97
64184;BMP280;50485;49.768;8.636;2022-08-03T06:57:39;100292.78;;;28.47
64184;BMP280;50485;49.768;8.636;2022-08-03T07:00:04;100298.13;;;28.38
64184;BMP280;50485;49.768;8.636;2022-08-03T07:02:30;100292.25;;;28.68
64184;BMP280;50485;49.768;8.636;2022-08-03T07:04:55;100296.81;;;28.91
64184;BMP280;50485;49.768;8.636;2022-08-03T07:07:20;100293.75;;;29.02
64184;BMP280;50485;49.768;8.636;2022-08-03T07:09:45;100296.72;;;28.95
64184;BMP280;50485;49.768;8.636;2022-08-03T07:12:12;100297.13;;;28.64
64184;BMP280;50485;49.768;8.636;2022-08-03T07:14:37;100295.69;;;28.56
64184;BMP280;50485;49.768;8.636;2022-08-03T07:17:02;100294.72;;;28.95
64184;BMP280;50485;49.768;8.636;2022-08-03T07:19:27;100289.56;;;29.39
64184;BMP280;50485;49.768;8.636;2022-08-03T07:21:52;100297.75;;;29.42
64184;BMP280;50485;49.768;8.636;2022-08-03T07:24:18;100291.25;;;29.36
64184;BMP280;50485;49.768;8.636;2022-08-03T07:26:43;100293.41;;;29.00
64184;BMP280;50485;49.768;8.636;2022-08-03T07:29:08;100290.91;;;29.47
64184;BMP280;50485;49.768;8.636;2022-08-03T07:31:33;100295.91;;;29.65
64184;BMP280;50485;49.768;8.636;2022-08-03T07:33:58;100289.03;;;29.57
64184;BMP280;50485;49.768;8.636;2022-08-03T07:36:24;100285.81;;;29.45
64184;BMP280;50485;49.768;8.636;2022-08-03T07:38:49;100284.34;;;29.16
64184;BMP280;50485;49.768;8.636;2022-08-03T07:41:15;100293.22;;;29.49
64184;BMP280;50485;49.768;8.636;2022-08-03T07:43:40;100281.53;;;30.08
64184;BMP280;50485;49.768;8.636;2022-08-03T07:46:05;100291.56;;;30.40
64184;BMP280;50485;49.768;8.636;2022-08-03T07:48:30;100278.38;;;29.71
64184;BMP280;50485;49.768;8.636;2022-08-03T07:50:55;100287.31;;;29.88
64184;BMP280;50485;49.768;8.636;2022-08-03T07:53:20;100288.13;;;30.36
64184;BMP280;50485;49.768;8.636;2022-08-03T07:55:46;100290.03;;;30.26
64184;BMP280;50485;49.768;8.636;2022-08-03T07:58:11;100287.97;;;30.87
64184;BMP280;50485;49.768;8.636;2022-08-03T08:00:39;100297.91;;;30.62
64184;BMP280;50485;49.768;8.636;2022-08-03T08:03:05;100290.13;;;30.23
64184;BMP280;50485;49.768;8.636;2022-08-03T08:05:30;100284.44;;;29.79
64184;BMP280;50485;49.768;8.636;2022-08-03T08:07:55;100284.97;;;29.99
64184;BMP280;50485;49.768;8.636;2022-08-03T08:10:21;100285.31;;;30.14
64184;BMP280;50485;49.768;8.636;2022-08-03T08:12:46;100284.84;;;30.28
64184;BMP280;50485;49.768;8.636;2022-08-03T08:15:12;100279.97;;;30.32
64184;BMP280;50485;49.768;8.636;2022-08-03T08:17:44;100285.47;;;30.67
64184;BMP280;50485;49.768;8.636;2022-08-03T08:20:10;100283.63;;;30.64
64184;BMP280;50485;49.768;8.636;2022-08-03T08:22:35;100287.94;;;30.99
64184;BMP280;50485;49.768;8.636;2022-08-03T08:25:00;100286.34;;;31.20
64184;BMP280;50485;49.768;8.636;2022-08-03T08:27:25;100277.56;;;30.56
64184;BMP280;50485;49.768;8.636;2022-08-03T08:29:51;100282.72;;;30.67
64184;BMP280;50485;49.768;8.636;2022-08-03T08:32:16;100280.44;;;30.65
64184;BMP280;50485;49.768;8.636;2022-08-03T08:34:41;100282.63;;;30.92
64184;BMP280;50485;49.768;8.636;2022-08-03T08:37:07;100276.56;;;31.28
64184;BMP280;50485;49.768;8.636;2022-08-03T08:39:32;100270.84;;;30.79
64184;BMP280;50485;49.768;8.636;2022-08-03T08:41:57;100278.44;;;30.88
64184;BMP280;50485;49.768;8.636;2022-08-03T08:44:22;100265.78;;;30.99
64184;BMP280;50485;49.768;8.636;2022-08-03T08:46:47;100276.22;;;31.26
64184;BMP280;50485;49.768;8.636;2022-08-03T08:49:15;100273.19;;;31.64
64184;BMP280;50485;49.768;8.636;2022-08-03T08:51:42;100267.16;;;31.56
64184;BMP280;50485;49.768;8.636;2022-08-03T08:54:08;100265.22;;;31.35
64184;BMP280;50485;49.768;8.636;2022-08-03T08:56:34;100266.72;;;31.27
64184;BMP280;50485;49.768;8.636;2022-08-03T08:58:59;100264.44;;;31.75
64184;BMP280;50485;49.768;8.636;2022-08-03T09:01:25;100264.88;;;31.64
64184;BMP280;50485;49.768;8.636;2022-08-03T09:03:50;100263.00;;;32.01
64184;BMP280;50485;49.768;8.636;2022-08-03T09:06:18;100260.69;;;32.00
64184;BMP280;50485;49.768;8.636;2022-08-03T09:08:43;100266.66;;;31.80
64184;BMP280;50485;49.768;8.636;2022-08-03T09:11:08;100269.69;;;31.73
64184;BMP280;50485;49.768;8.636;2022-08-03T09:13:33;100267.78;;;31.61
64184;BMP280;50485;49.768;8.636;2022-08-03T09:16:09;100255.59;;;32.16
64184;BMP280;50485;49.768;8.636;2022-08-03T09:18:35;100267.72;;;31.91
64184;BMP280;50485;49.768;8.636;2022-08-03T09:21:12;100265.03;;;32.19
64184;BMP280;50485;49.768;8.636;2022-08-03T09:23:44;100264.88;;;32.13
64184;BMP280;50485;49.768;8.636;2022-08-03T09:26:10;100273.19;;;32.41
64184;BMP280;50485;49.768;8.636;2022-08-03T09:28:35;100271.22;;;32.59
64184;BMP280;50485;49.768;8.636;2022-08-03T09:31:01;100270.41;;;32.77
64184;BMP280;50485;49.768;8.636;2022-08-03T09:33:26;100274.59;;;32.73
64184;BMP280;50485;49.768;8.636;2022-08-03T09:35:52;100273.47;;;32.88
64184;BMP280;50485;49.768;8.636;2022-08-03T09:38:21;100269.59;;;33.04
64184;BMP280;50485;49.768;8.636;2022-08-03T09:40:48;100273.75;;;33.18
64184;BMP280;50485;49.768;8.636;2022-08-03T09:43:13;100277.56;;;33.20
64184;BMP280;50485;49.768;8.636;2022-08-03T09:45:39;100271.50;;;33.73
64184;BMP280;50485;49.768;8.636;2022-08-03T09:50:48;100280.00;;;34.56
64184;BMP280;50485;49.768;8.636;2022-08-03T09:53:14;100279.50;;;34.72
64184;BMP280;50485;49.768;8.636;2022-08-03T09:55:48;100288.25;;;34.65
64184;BMP280;50485;49.768;8.636;2022-08-03T09:58:14;100285.13;;;35.01
64184;BMP280;50485;49.768;8.636;2022-08-03T10:03:17;100274.34;;;34.65
64184;BMP280;50485;49.768;8.636;2022-08-03T10:05:42;100261.19;;;32.89
64184;BMP280;50485;49.768;8.636;2022-08-03T10:08:13;100255.63;;;32.25
64184;BMP280;50485;49.768;8.636;2022-08-03T10:10:42;100255.72;;;31.95
64184;BMP280;50485;49.768;8.636;2022-08-03T10:13:08;100251.19;;;31.61
64184;BMP280;50485;49.768;8.636;2022-08-03T10:15:34;100238.69;;;32.33
64184;BMP280;50485;49.768;8.636;2022-08-03T10:17:59;100234.94;;;31.90
64184;BMP280;50485;49.768;8.636;2022-08-03T10:20:24;100230.28;;;31.69
64184;BMP280;50485;49.768;8.636;2022-08-03T10:22:50;100227.22;;;31.76
64184;BMP280;50485;49.768;8.636;2022-08-03T10:25:16;100224.81;;;31.47
64184;BMP280;50485;49.768;8.636;2022-08-03T10:27:43;100227.53;;;31.69
64184;BMP280;50485;49.768;8.636;2022-08-03T10:30:11;100230.84;;;31.54
64184;BMP280;50485;49.768;8.636;2022-08-03T10:35:03;100217.19;;;31.29
64184;BMP280;50485;49.768;8.636;2022-08-03T10:37:29;100209.31;;;31.68
64184;BMP280;50485;49.768;8.636;2022-08-03T10:39:55;100201.38;;;32.06
64184;BMP280;50485;49.768;8.636;2022-08-03T10:42:22;100203.88;;;32.13
64184;BMP280;50485;49.768;8.636;2022-08-03T10:44:49;100205.50;;;31.65
64184;BMP280;50485;49.768;8.636;2022-08-03T10:47:16;100204.19;;;31.48
64184;BMP280;50485;49.768;8.636;2022-08-03T10:49:42;100200.81;;;31.13
64184;BMP280;50485;49.768;8.636;2022-08-03T10:52:07;100210.31;;;31.03
64184;BMP280;50485;49.768;8.636;2022-08-03T10:54:37;100200.13;;;31.00
64184;BMP280;50485;49.768;8.636;2022-08-03T10:57:44;100196.25;;;31.28
64184;BMP280;50485;49.768;8.636;2022-08-03T11:00:11;100196.50;;;31.61
64184;BMP280;50485;49.768;8.636;2022-08-03T11:05:24;100180.97;;;31.14
64184;BMP280;50485;49.768;8.636;2022-08-03T11:07:49;100191.75;;;30.91
64184;BMP280;50485;49.768;8.636;2022-08-03T11:10:31;100190.50;;;30.82
64184;BMP280;50485;49.768;8.636;2022-08-03T11:13:05;100180.00;;;30.77
64184;BMP280;50485;49.768;8.636;2022-08-03T11:15:32;100178.81;;;30.88
64184;BMP280;50485;49.768;8.636;2022-08-03T11:18:06;100170.19;;;31.07
64184;BMP280;50485;49.768;8.636;2022-08-03T11:20:51;100170.00;;;31.02
64184;BMP280;50485;49.768;8.636;2022-08-03T11:23:18;100161.38;;;31.31
64184;BMP280;50485;49.768;8.636;2022-08-03T11:28:28;100173.41;;;31.06
64184;BMP280;50485;49.768;8.636;2022-08-03T11:30:53;100173.38;;;30.97
64184;BMP280;50485;49.768;8.636;2022-08-03T11:33:27;100172.44;;;30.78
64184;BMP280;50485;49.768;8.636;2022-08-03T11:36:00;100169.34;;;30.98
64184;BMP280;50485;49.768;8.636;2022-08-03T11:38:25;100170.47;;;30.78
64184;BMP280;50485;49.768;8.636;2022-08-03T11:40:51;100169.63;;;30.91
64184;BMP280;50485;49.768;8.636;2022-08-03T11:46:01;100157.38;;;31.01
64184;BMP280;50485;49.768;8.636;2022-08-03T11:48:32;100164.31;;;30.74
64184;BMP280;50485;49.768;8.636;2022-08-03T11:50:58;100159.22;;;30.73
64184;BMP280;50485;49.768;8.636;2022-08-03T11:53:23;100170.22;;;30.86
64184;BMP280;50485;49.768;8.636;2022-08-03T11:55:49;100165.63;;;30.70
64184;BMP280;50485;49.768;8.636;2022-08-03T11:58:15;100160.56;;;30.90
64184;BMP280;50485;49.768;8.636;2022-08-03T12:00:40;100149.16;;;30.88
64184;BMP280;50485;49.768;8.636;2022-08-03T12:03:06;100149.75;;;30.83
64184;BMP280;50485;49.768;8.636;2022-08-03T12:05:39;100152.72;;;30.89
64184;BMP280;50485;49.768;8.636;2022-08-03T12:08:05;100137.38;;;30.97
64184;BMP280;50485;49.768;8.636;2022-08-03T12:10:30;100135.66;;;30.90
64184;BMP280;50485;49.768;8.636;2022-08-03T12:12:56;100137.44;;;30.75
64184;BMP280;50485;49.768;8.636;2022-08-03T12:15:26;100144.94;;;30.74
64184;BMP280;50485;49.768;8.636;2022-08-03T12:17:51;100137.03;;;30.64
64184;BMP280;50485;49.768;8.636;2022-08-03T12:20:20;100126.34;;;30.53
64184;BMP280;50485;49.768;8.636;2022-08-03T12:22:45;100124.88;;;30.61
64184;BMP280;50485;49.768;8.636;2022-08-03T12:25:18;100125.56;;;30.74
64184;BMP280;50485;49.768;8.636;2022-08-03T12:27:44;100124.50;;;30.81
64184;BMP280;50485;49.768;8.636;2022-08-03T12:30:10;100121.66;;;30.63
64184;BMP280;50485;49.768;8.636;2022-08-03T12:32:35;100121.34;;;30.61
64184;BMP280;50485;49.768;8.636;2022-08-03T12:35:01;100125.69;;;30.71
64184;BMP280;50485;49.768;8.636;2022-08-03T12:37:28;100119.75;;;30.81
64184;BMP280;50485;49.768;8.636;2022-08-03T12:39:54;100119.25;;;30.74
64184;BMP280;50485;49.768;8.636;2022-08-03T12:42:20;100131.97;;;30.62
64184;BMP280;50485;49.768;8.636;2022-08-03T12:44:45;100120.63;;;30.69
64184;BMP280;50485;49.768;8.636;2022-08-03T12:47:12;100121.09;;;30.68
64184;BMP280;50485;49.768;8.636;2022-08-03T12:49:48;100120.25;;;30.58
64184;BMP280;50485;49.768;8.636;2022-08-03T12:52:13;100114.50;;;30.74
64184;BMP280;50485;49.768;8.636;2022-08-03T12:54:38;100119.34;;;30.61
64184;BMP280;50485;49.768;8.636;2022-08-03T12:57:05;100123.28;;;30.51
64184;BMP280;50485;49.768;8.636;2022-08-03T12:59:31;100119.91;;;30.56
64184;BMP280;50485;49.768;8.636;2022-08-03T13:01:57;100113.28;;;30.54
64184;BMP280;50485;49.768;8.636;2022-08-03T13:04:29;100115.56;;;30.68
64184;BMP280;50485;49.768;8.636;2022-08-03T13:09:23;100119.78;;;30.60
64184;BMP280;50485;49.768;8.636;2022-08-03T13:12:03;100110.53;;;30.54
64184;BMP280;50485;49.768;8.636;2022-08-03T13:14:28;100113.97;;;30.58
64184;BMP280;50485;49.768;8.636;2022-08-03T13:16:53;100106.41;;;30.58
64184;BMP280;50485;49.768;8.636;2022-08-03T13:19:18;100105.06;;;30.63
64184;BMP280;50485;49.768;8.636;2022-08-03T13:21:44;100108.59;;;30.63
64184;BMP280;50485;49.768;8.636;2022-08-03T13:24:10;100104.09;;;30.57
64184;BMP280;50485;49.768;8.636;2022-08-03T13:26:35;100093.50;;;30.55
64184;BMP280;50485;49.768;8.636;2022-08-03T13:29:00;100097.78;;;30.56
64184;BMP280;50485;49.768;8.636;2022-08-03T13:31:25;100106.41;;;30.58
64184;BMP280;50485;49.768;8.636;2022-08-03T13:33:50;100098.56;;;30.57
64184;BMP280;50485;49.768;8.636;2022-08-03T13:36:15;100103.97;;;30.60
64184;BMP280;50485;49.768;8.636;2022-08-03T13:38:41;100099.34;;;30.57
64184;BMP280;50485;49.768;8.636;2022-08-03T13:41:06;100091.25;;;30.63
64184;BMP280;50485;49.768;8.636;2022-08-03T13:43:31;100086.94;;;30.62
64184;BMP280;50485;49.768;8.636;2022-08-03T13:45:57;100097.66;;;30.60
64184;BMP280;50485;49.768;8.636;2022-08-03T13:48:22;100092.59;;;30.58
64184;BMP280;50485;49.768;8.636;2022-08-03T13:50:47;100098.31;;;30.64
64184;BMP280;50485;49.768;8.636;2022-08-03T13:53:12;100082.84;;;30.75
64184;BMP280;50485;49.768;8.636;2022-08-03T13:55:37;100072.38;;;30.70
64184;BMP280;50485;49.768;8.636;2022-08-03T13:58:03;100072.38;;;30.70
64184;BMP280;50485;49.768;8.636;2022-08-03T14:00:28;100065.34;;;30.78
64184;BMP280;50485;49.768;8.636;2022-08-03T14:02:54;100071.47;;;30.73
64184;BMP280;50485;49.768;8.636;2022-08-03T14:05:19;100068.75;;;30.52
64184;BMP280;50485;49.768;8.636;2022-08-03T14:07:44;100065.88;;;30.64
64184;BMP280;50485;49.768;8.636;2022-08-03T14:10:09;100062.75;;;30.53
64184;BMP280;50485;49.768;8.636;2022-08-03T14:12:35;100063.63;;;30.41
64184;BMP280;50485;49.768;8.636;2022-08-03T14:15:00;100062.16;;;30.58
64184;BMP280;50485;49.768;8.636;2022-08-03T14:17:25;100050.56;;;30.72
64184;BMP280;50485;49.768;8.636;2022-08-03T14:19:50;100052.38;;;30.66
64184;BMP280;50485;49.768;8.636;2022-08-03T14:22:15;100044.66;;;30.61
64184;BMP280;50485;49.768;8.636;2022-08-03T14:24:40;100041.72;;;30.56